Time;durP1;ratioP1;P1;durP2;ratioP2;P2;SDS_P1;SDS_P2;PMS_P1;PMS_P2;Temp;Humidity;BMP_temperature;BMP_pressure;BME280_temperature;BME280_humidity;BME280_pressure;Samples;Min_cycle;Max_cycle;Signal;HPM_P1;HPM_P2
2022/08/14 00:00:19;;;;;;;8.88;5.07;;;21.90;72.30;;;;;;5011341;28;20037;-72
2022/08/14 00:02:44;;;;;;;8.40;5.40;;;21.90;72.10;;;;;;5015367;28;20049;-72
2022/08/14 00:05:16;;;;;;;6.82;4.97;;;21.90;72.10;;;;;;5003178;28;20534;-72
2022/08/14 00:07:42;;;;;;;6.78;5.07;;;21.90;71.90;;;;;;5012213;28;20096;-71
2022/08/14 00:10:10;;;;;;;6.05;5.05;;;21.90;72.20;;;;;;5009952;28;20049;-71
2022/08/14 00:12:37;;;;;;;;;;;21.90;72.40;;;;;;5008540;28;20467;-71
2022/08/14 00:15:06;;;;;;;7.78;5.45;;;21.90;72.20;;;;;;5023338;28;19925;-71
2022/08/14 00:17:32;;;;;;;7.43;4.97;;;22.00;72.50;;;;;;5015219;28;20128;-71
2022/08/14 00:19:57;;;;;;;7.95;5.47;;;21.90;72.40;;;;;;5012502;28;20157;-71
2022/08/14 00:22:23;;;;;;;6.57;5.15;;;21.90;72.90;;;;;;5011667;28;20124;-71
2022/08/14 00:24:49;;;;;;;7.50;5.20;;;21.90;73.10;;;;;;5051551;28;20068;-71
2022/08/14 00:27:15;;;;;;;9.93;5.20;;;21.90;72.90;;;;;;5003267;28;20077;-70
2022/08/14 00:29:40;;;;;;;7.43;5.88;;;21.90;72.70;;;;;;5010622;28;20050;-72
2022/08/14 00:32:07;;;;;;;6.80;5.68;;;21.90;73.30;;;;;;4996138;28;20207;-71
2022/08/14 00:34:33;;;;;;;7.20;5.65;;;21.90;73.20;;;;;;5010287;28;20046;-71
2022/08/14 00:36:58;;;;;;;8.65;5.60;;;21.90;72.90;;;;;;5047450;28;20046;-71
2022/08/14 00:39:24;;;;;;;7.43;5.80;;;21.90;73.10;;;;;;4991000;28;20061;-69
2022/08/14 00:41:50;;;;;;;8.30;5.72;;;21.80;73.70;;;;;;5012788;28;20471;-70
2022/08/14 00:44:16;;;;;;;5.90;5.30;;;21.90;73.70;;;;;;5010020;28;20045;-70
2022/08/14 00:46:44;;;;;;;7.45;5.18;;;21.90;73.50;;;;;;5007146;28;20563;-70
2022/08/14 00:49:11;;;;;;;7.38;6.07;;;21.90;73.40;;;;;;5013354;28;20483;-70
2022/08/14 00:51:38;;;;;;;6.53;5.40;;;21.90;73.80;;;;;;5057787;28;20191;-69
2022/08/14 00:54:05;;;;;;;6.70;6.00;;;21.90;73.70;;;;;;5015079;28;21302;-70
2022/08/14 00:56:30;;;;;;;6.25;5.65;;;21.90;74.30;;;;;;5020109;28;20781;-69
2022/08/14 00:58:57;;;;;;;7.25;5.68;;;21.80;74.20;;;;;;5013651;28;20103;-71
2022/08/14 01:01:23;;;;;;;7.95;5.78;;;21.80;74.60;;;;;;4989909;28;20052;-70
2022/08/14 01:03:48;;;;;;;9.68;5.65;;;21.80;75.00;;;;;;5009104;28;20049;-72
2022/08/14 01:06:15;;;;;;;6.45;5.30;;;21.70;74.90;;;;;;5012805;28;20045;-70
2022/08/14 01:08:42;;;;;;;8.23;5.57;;;21.70;75.20;;;;;;5017667;28;20115;-69
2022/08/14 01:11:09;;;;;;;8.45;6.00;;;21.70;75.10;;;;;;5001880;28;20060;-69
2022/08/14 01:13:37;;;;;;;6.05;5.45;;;21.70;76.20;;;;;;5005808;28;20049;-70
2022/08/14 01:16:07;;;;;;;8.15;5.22;;;21.70;75.70;;;;;;5005683;28;20046;-70
2022/08/14 01:21:34;;;;;;;6.40;5.35;;;21.70;75.40;;;;;;5022214;28;20046;-69
2022/08/14 01:24:00;;;;;;;7.13;6.03;;;21.70;75.20;;;;;;5012514;28;20042;-70
2022/08/14 01:26:27;;;;;;;10.20;5.07;;;21.60;75.60;;;;;;5013159;28;20056;-70
2022/08/14 01:28:54;;;;;;;8.52;5.43;;;21.70;75.80;;;;;;5010463;28;20076;-71
2022/08/14 01:31:21;;;;;;;8.57;5.78;;;21.60;75.60;;;;;;5015811;28;20046;-69
2022/08/14 01:33:48;;;;;;;5.93;5.32;;;21.70;75.70;;;;;;5000285;28;20053;-69
2022/08/14 01:36:19;;;;;;;6.43;5.22;;;21.70;75.70;;;;;;5012499;28;20054;-69
2022/08/14 01:38:47;;;;;;;7.68;5.40;;;21.60;75.80;;;;;;5043021;28;20045;-67
2022/08/14 01:41:20;;;;;;;7.70;5.75;;;21.60;76.30;;;;;;4999291;28;20460;-67
2022/08/14 01:43:49;;;;;;;6.57;5.47;;;21.50;76.50;;;;;;5012633;28;20140;-69
2022/08/14 01:46:27;;;;;;;5.70;5.10;;;21.50;76.60;;;;;;5012302;28;20060;-69
2022/08/14 01:48:52;;;;;;;6.65;5.50;;;21.50;76.60;;;;;;4993128;28;20046;-68
2022/08/14 01:51:21;;;;;;;8.77;5.35;;;21.50;76.80;;;;;;4995604;28;20064;-68
2022/08/14 01:53:55;;;;;;;6.95;5.20;;;21.50;76.20;;;;;;5017577;28;20544;-68
2022/08/14 01:56:28;;;;;;;8.25;5.82;;;21.60;76.20;;;;;;5016085;28;20046;-67
2022/08/14 01:58:54;;;;;;;6.78;5.10;;;21.50;76.30;;;;;;4990190;28;20174;-67
2022/08/14 02:01:20;;;;;;;8.60;5.82;;;21.60;76.10;;;;;;5013054;28;20046;-68
2022/08/14 02:03:46;;;;;;;8.77;5.80;;;21.60;75.90;;;;;;5009612;28;20115;-68
2022/08/14 02:06:12;;;;;;;8.50;5.45;;;21.60;76.80;;;;;;5016098;28;20045;-68
2022/08/14 02:08:39;;;;;;;8.10;5.50;;;21.50;76.70;;;;;;5007925;28;20755;-67
2022/08/14 02:11:21;;;;;;;7.15;5.45;;;21.50;76.50;;;;;;5006125;28;20582;-67
2022/08/14 02:13:53;;;;;;;9.60;5.32;;;21.50;77.40;;;;;;5023014;28;20049;-68
2022/08/14 02:16:20;;;;;;;7.00;5.40;;;21.40;77.40;;;;;;5008312;28;20057;-68
2022/08/14 02:18:47;;;;;;;6.90;5.80;;;21.40;77.60;;;;;;5038576;28;20046;-68
2022/08/14 02:21:17;;;;;;;15.80;5.70;;;21.40;77.80;;;;;;5008877;28;20049;-69
2022/08/14 02:23:45;;;;;;;7.25;5.88;;;21.40;77.10;;;;;;5009188;28;20288;-69
2022/08/14 02:26:31;;;;;;;8.82;5.60;;;21.40;77.00;;;;;;5004475;28;20049;-69
2022/08/14 02:29:00;;;;;;;7.82;5.15;;;21.40;77.50;;;;;;5005993;28;20557;-67
2022/08/14 02:31:29;;;;;;;7.03;5.68;;;21.40;77.60;;;;;;5004642;28;20046;-67
2022/08/14 02:33:55;;;;;;;;;;;21.30;78.20;;;;;;5035001;28;20822;-68
2022/08/14 02:36:21;;;;;;;8.10;5.68;;;21.30;77.90;;;;;;5054035;28;19921;-68
2022/08/14 02:38:48;;;;;;;7.00;5.35;;;21.30;77.40;;;;;;5012294;28;20128;-68
2022/08/14 02:41:14;;;;;;;6.82;6.00;;;21.30;77.10;;;;;;4994669;28;20515;-68
2022/08/14 02:43:40;;;;;;;6.72;5.72;;;21.30;77.00;;;;;;5003537;28;20092;-68
2022/08/14 02:46:08;;;;;;;6.28;5.68;;;21.30;77.20;;;;;;5039849;28;20076;-68
2022/08/14 02:48:38;;;;;;;;;;;21.40;76.80;;;;;;4975027;28;20115;-68
2022/08/14 02:51:07;;;;;;;6.20;5.60;;;21.40;76.60;;;;;;5036207;28;19959;-70
2022/08/14 02:53:33;;;;;;;8.43;5.95;;;21.40;76.30;;;;;;5039362;28;20045;-68
2022/08/14 02:55:59;;;;;;;8.15;5.93;;;21.50;76.50;;;;;;5005801;28;20042;-68
2022/08/14 02:58:25;;;;;;;6.18;5.57;;;21.40;76.50;;;;;;4994816;28;20049;-67
2022/08/14 03:00:51;;;;;;;6.88;5.55;;;21.30;77.70;;;;;;5011334;28;20097;-67
2022/08/14 03:03:19;;;;;;;6.70;5.60;;;21.30;77.40;;;;;;5005084;28;20042;-67
2022/08/14 03:05:44;;;;;;;6.97;5.97;;;21.30;77.50;;;;;;5008701;28;20046;-67
2022/08/14 03:08:11;;;;;;;6.40;5.72;;;21.20;79.00;;;;;;5017167;28;20048;-67
2022/08/14 03:10:37;;;;;;;6.85;6.03;;;21.20;78.00;;;;;;5003801;28;20462;-67
2022/08/14 03:13:03;;;;;;;9.13;6.38;;;21.20;78.70;;;;;;5007956;28;20050;-68
2022/08/14 03:15:53;;;;;;;7.88;5.90;;;21.20;78.90;;;;;;5003806;28;20141;-69
2022/08/14 03:18:20;;;;;;;10.52;5.93;;;21.20;79.10;;;;;;5012132;28;20208;-67
2022/08/14 03:20:45;;;;;;;9.18;6.32;;;21.20;79.00;;;;;;5039313;28;20341;-68
2022/08/14 03:23:12;;;;;;;7.57;6.57;;;21.30;78.70;;;;;;5008026;28;20049;-68
2022/08/14 03:25:37;;;;;;;5.90;5.30;;;21.30;79.50;;;;;;4988630;28;20045;-68
2022/08/14 03:28:07;;;;;;;7.18;5.63;;;21.20;79.40;;;;;;5010649;28;21582;-68
2022/08/14 03:30:34;;;;;;;7.30;6.22;;;21.20;78.80;;;;;;5015693;28;20476;-68
2022/08/14 03:33:00;;;;;;;7.57;6.10;;;21.20;78.60;;;;;;5043667;28;20053;-68
2022/08/14 03:35:26;;;;;;;7.65;6.03;;;21.20;78.30;;;;;;5014668;28;20120;-68
2022/08/14 03:37:51;;;;;;;7.05;6.05;;;21.20;78.60;;;;;;4991866;28;20045;-68
2022/08/14 03:40:21;;;;;;;9.65;6.45;;;21.10;79.30;;;;;;5016682;28;20042;-68
2022/08/14 03:42:47;;;;;;;7.18;6.30;;;21.00;79.80;;;;;;5016650;28;20037;-67
2022/08/14 03:45:14;;;;;;;7.55;5.57;;;21.00;79.60;;;;;;4997622;28;20132;-68
2022/08/14 03:47:40;;;;;;;8.32;6.28;;;21.00;79.60;;;;;;5010678;28;20061;-68
2022/08/14 03:50:09;;;;;;;9.40;6.47;;;20.90;80.40;;;;;;5015146;28;20056;-68
2022/08/14 03:52:36;;;;;;;6.38;5.65;;;20.90;79.60;;;;;;4995113;28;20089;-69
2022/08/14 03:55:10;;;;;;;9.73;5.78;;;20.90;79.70;;;;;;5015561;28;20056;-67
2022/08/14 03:57:37;;;;;;;9.10;6.30;;;20.90;79.50;;;;;;4996327;28;20765;-68
2022/08/14 04:00:07;;;;;;;9.15;6.03;;;20.90;79.50;;;;;;5037150;28;20422;-68
2022/08/14 04:02:33;;;;;;;7.85;5.90;;;20.90;79.50;;;;;;5025493;28;20391;-68
2022/08/14 04:05:00;;;;;;;6.95;5.75;;;20.80;79.90;;;;;;5025431;28;20042;-69
2022/08/14 04:07:26;;;;;;;7.45;6.38;;;20.80;80.10;;;;;;4990648;28;20162;-67
2022/08/14 04:09:52;;;;;;;7.53;5.90;;;20.80;80.50;;;;;;5023740;28;20515;-68
2022/08/14 04:12:18;;;;;;;9.98;6.05;;;20.70;81.00;;;;;;5000172;28;20049;-68
2022/08/14 04:14:44;;;;;;;9.20;6.85;;;20.70;81.80;;;;;;5023640;28;20795;-68
2022/08/14 04:17:11;;;;;;;8.02;6.65;;;20.70;81.40;;;;;;5007627;28;20057;-70
2022/08/14 04:19:38;;;;;;;7.78;6.57;;;20.70;81.10;;;;;;5006160;28;20596;-70
2022/08/14 04:22:05;;;;;;;7.78;6.47;;;20.60;81.70;;;;;;5010338;28;20195;-68
2022/08/14 04:24:31;;;;;;;7.65;6.47;;;20.60;82.30;;;;;;5023623;28;20042;-70
2022/08/14 04:26:57;;;;;;;6.68;6.05;;;20.60;81.90;;;;;;5013920;28;20388;-68
2022/08/14 04:29:22;;;;;;;8.15;5.75;;;20.60;81.20;;;;;;5020126;28;20065;-68
2022/08/14 04:31:49;;;;;;;7.30;6.30;;;20.60;81.60;;;;;;5021456;28;20057;-68
2022/08/14 04:34:15;;;;;;;6.85;5.68;;;20.60;81.50;;;;;;4999913;28;20054;-70
2022/08/14 04:44:54;;;;;;;7.65;6.60;;;20.60;81.90;;;;;;5021089;28;20192;-68
2022/08/14 04:50:05;;;;;;;7.18;6.47;;;20.60;82.20;;;;;;5010921;28;20076;-67
2022/08/14 04:52:31;;;;;;;9.25;5.90;;;20.60;82.20;;;;;;5057687;28;20625;-67
2022/08/14 04:54:57;;;;;;;8.80;6.35;;;20.70;81.90;;;;;;4996724;28;20050;-69
2022/08/14 04:57:24;;;;;;;8.90;6.70;;;20.70;81.70;;;;;;4993264;28;20045;-67
2022/08/14 04:59:51;;;;;;;10.73;6.68;;;20.70;81.70;;;;;;5011464;28;20419;-68
2022/08/14 05:02:17;;;;;;;10.95;6.68;;;20.70;82.10;;;;;;5014731;28;20041;-69
2022/08/14 05:04:43;;;;;;;11.48;7.35;;;20.70;81.80;;;;;;5019518;28;20107;-68
2022/08/14 05:07:08;;;;;;;9.90;6.75;;;20.80;81.50;;;;;;4994530;28;20050;-68
2022/08/14 05:09:34;;;;;;;9.60;6.72;;;20.80;81.60;;;;;;4993709;28;20509;-67
2022/08/14 05:12:00;;;;;;;7.78;6.97;;;20.80;81.50;;;;;;5010091;28;20054;-68
2022/08/14 05:14:26;;;;;;;8.25;7.30;;;20.80;81.30;;;;;;5013847;28;20057;-68
2022/08/14 05:16:52;;;;;;;7.68;6.97;;;20.80;81.30;;;;;;5021097;28;20088;-68
2022/08/14 05:19:18;;;;;;;9.40;6.88;;;20.80;81.50;;;;;;4993101;28;20080;-69
2022/08/14 05:21:44;;;;;;;8.15;7.25;;;20.80;81.10;;;;;;5039250;28;20087;-67
2022/08/14 05:24:11;;;;;;;11.75;7.40;;;20.80;81.50;;;;;;5014038;28;20045;-68
2022/08/14 05:26:40;;;;;;;8.73;7.10;;;20.80;81.60;;;;;;5017051;28;20110;-68
2022/08/14 05:29:08;;;;;;;8.93;7.40;;;20.80;81.50;;;;;;5002389;28;20068;-68
2022/08/14 05:31:36;;;;;;;7.35;6.40;;;20.80;81.60;;;;;;4993740;28;20061;-68
2022/08/14 05:34:02;;;;;;;9.23;6.75;;;20.90;81.50;;;;;;5015489;28;20192;-68
2022/08/14 05:36:28;;;;;;;11.55;7.25;;;20.90;80.90;;;;;;5009674;28;20844;-69
2022/08/14 05:38:55;;;;;;;7.85;7.13;;;20.90;81.10;;;;;;5019586;28;20050;-68
2022/08/14 05:41:21;;;;;;;8.07;7.15;;;20.90;81.20;;;;;;5014152;28;20064;-67
2022/08/14 05:43:46;;;;;;;8.98;6.40;;;20.90;81.10;;;;;;5009964;28;20154;-68
2022/08/14 05:46:14;;;;;;;9.93;6.43;;;21.00;80.80;;;;;;4992134;28;20108;-66
2022/08/14 05:48:39;;;;;;;6.72;5.97;;;21.00;80.70;;;;;;5015944;28;20059;-67
2022/08/14 05:51:05;;;;;;;9.25;6.35;;;21.00;80.60;;;;;;5022304;28;20046;-68
2022/08/14 05:53:31;;;;;;;8.10;6.60;;;21.10;80.90;;;;;;5046011;28;20045;-67
2022/08/14 05:55:58;;;;;;;7.78;6.25;;;21.10;80.20;;;;;;5020063;28;20049;-66
2022/08/14 05:58:24;;;;;;;10.45;7.22;;;21.20;80.10;;;;;;5012574;28;20147;-67
2022/08/14 06:00:49;;;;;;;7.60;6.20;;;21.20;80.40;;;;;;5016023;28;20459;-69
2022/08/14 06:03:17;;;;;;;7.88;6.20;;;21.30;80.00;;;;;;5011102;28;20053;-68
2022/08/14 06:05:44;;;;;;;8.63;5.83;;;21.30;79.80;;;;;;5009062;28;20042;-69
2022/08/14 06:08:17;;;;;;;7.13;6.38;;;21.30;80.20;;;;;;5008576;28;20618;-67
2022/08/14 06:10:43;;;;;;;8.48;6.15;;;21.40;80.00;;;;;;4997106;28;20042;-69
2022/08/14 06:13:09;;;;;;;7.75;6.28;;;21.40;81.10;;;;;;5020890;28;20038;-68
2022/08/14 06:15:35;;;;;;;7.57;6.72;;;21.50;80.20;;;;;;5014157;28;20169;-68
2022/08/14 06:18:01;;;;;;;7.07;6.38;;;21.50;80.20;;;;;;5015292;28;20046;-68
2022/08/14 06:20:27;;;;;;;9.65;6.53;;;21.60;80.00;;;;;;5017265;28;20045;-68
2022/08/14 06:22:52;;;;;;;8.32;6.35;;;21.60;79.40;;;;;;5023773;28;20087;-69
2022/08/14 06:25:18;;;;;;;7.90;5.80;;;21.70;79.60;;;;;;5033485;28;20069;-67
2022/08/14 06:27:45;;;;;;;7.97;6.57;;;21.70;79.60;;;;;;5009811;28;20072;-68
2022/08/14 06:30:13;;;;;;;7.55;6.10;;;21.80;79.90;;;;;;5009294;28;20068;-68
2022/08/14 06:32:39;;;;;;;7.78;6.30;;;21.80;79.30;;;;;;5013677;28;20128;-68
2022/08/14 06:35:05;;;;;;;7.63;5.97;;;21.90;79.30;;;;;;4991741;28;20057;-68
2022/08/14 06:37:41;;;;;;;7.75;6.78;;;21.90;78.80;;;;;;5016058;28;20045;-68
2022/08/14 06:40:11;;;;;;;8.63;6.07;;;22.00;78.90;;;;;;5006186;28;20044;-67
2022/08/14 06:42:37;;;;;;;9.38;6.10;;;22.00;79.10;;;;;;5009491;28;20483;-68
2022/08/14 06:45:04;;;;;;;8.75;6.22;;;22.10;79.20;;;;;;5009488;28;20041;-69
2022/08/14 06:47:33;;;;;;;7.13;5.95;;;22.10;78.80;;;;;;5014036;28;20057;-68
2022/08/14 06:49:59;;;;;;;6.95;6.07;;;22.20;78.80;;;;;;5010095;28;20049;-70
2022/08/14 06:52:25;;;;;;;6.95;5.75;;;22.20;78.60;;;;;;4996629;28;20647;-71
2022/08/14 06:54:51;;;;;;;6.55;5.82;;;22.20;78.30;;;;;;5010296;28;20046;-70
2022/08/14 06:57:16;;;;;;;6.63;6.00;;;22.30;78.20;;;;;;5007806;28;20065;-71
2022/08/14 06:59:42;;;;;;;7.90;6.07;;;22.30;77.90;;;;;;5054557;28;20395;-70
2022/08/14 07:07:37;;;;;;;6.88;6.18;;;22.50;77.70;;;;;;5011008;28;20124;-70
2022/08/14 07:10:04;;;;;;;7.32;6.35;;;22.60;77.30;;;;;;5008465;28;20153;-68
2022/08/14 07:12:30;;;;;;;9.95;6.35;;;22.70;77.00;;;;;;5010653;28;20053;-68
2022/08/14 07:14:56;;;;;;;8.73;5.43;;;22.70;76.90;;;;;;4997665;28;20052;-69
2022/08/14 07:17:22;;;;;;;7.38;5.68;;;22.70;76.70;;;;;;5013936;28;20058;-69
2022/08/14 07:19:47;;;;;;;10.18;5.85;;;22.70;76.70;;;;;;5013503;28;20049;-69
2022/08/14 07:22:13;;;;;;;8.55;5.68;;;22.80;76.30;;;;;;5023993;28;20042;-68
2022/08/14 07:24:39;;;;;;;9.48;6.07;;;22.80;76.40;;;;;;5007793;28;20092;-68
2022/08/14 07:27:05;;;;;;;11.55;5.80;;;22.90;76.40;;;;;;5013445;28;20131;-68
2022/08/14 07:29:31;;;;;;;10.10;6.25;;;23.00;76.20;;;;;;5007645;28;20112;-68
2022/08/14 07:31:56;;;;;;;7.85;6.40;;;23.10;75.70;;;;;;5017501;28;20065;-68
2022/08/14 07:34:22;;;;;;;8.70;6.45;;;23.20;75.10;;;;;;5008262;28;20480;-73
2022/08/14 07:36:48;;;;;;;9.70;6.80;;;23.30;74.60;;;;;;5037010;28;20056;-67
2022/08/14 07:39:14;;;;;;;10.32;7.30;;;23.40;74.20;;;;;;4991585;28;20045;-69
2022/08/14 07:41:40;;;;;;;7.68;6.70;;;23.60;73.80;;;;;;5007596;28;20125;-69
2022/08/14 07:44:05;;;;;;;8.23;6.95;;;23.70;73.40;;;;;;5008231;28;20053;-68
2022/08/14 07:46:31;;;;;;;7.75;6.72;;;23.80;73.20;;;;;;4991258;28;20056;-68
2022/08/14 07:48:57;;;;;;;7.47;6.75;;;23.90;72.70;;;;;;5010919;28;20058;-68
2022/08/14 07:51:23;;;;;;;7.57;6.85;;;24.00;72.70;;;;;;4996260;28;20046;-67
2022/08/14 07:53:49;;;;;;;7.45;6.40;;;24.10;72.40;;;;;;4992373;28;20053;-68
2022/08/14 07:56:16;;;;;;;11.15;6.70;;;24.10;71.80;;;;;;5013228;28;20721;-68
2022/08/14 07:58:41;;;;;;;8.57;6.57;;;24.20;71.50;;;;;;5009594;28;20046;-68
2022/08/14 08:01:07;;;;;;;10.43;7.15;;;24.30;71.20;;;;;;5041236;28;20356;-67
2022/08/14 08:03:34;;;;;;;9.23;6.80;;;24.40;71.00;;;;;;5013339;28;20053;-68
2022/08/14 08:06:00;;;;;;;13.20;8.82;;;24.50;70.60;;;;;;5008234;28;20743;-68
2022/08/14 08:08:27;;;;;;;11.05;7.00;;;24.50;70.70;;;;;;4983649;28;20057;-67
2022/08/14 08:10:57;;;;;;;9.55;7.65;;;24.60;70.50;;;;;;5010645;28;20056;-68
2022/08/14 08:13:23;;;;;;;7.68;6.88;;;24.70;70.20;;;;;;4978217;28;20107;-68
2022/08/14 08:15:52;;;;;;;12.73;7.40;;;24.80;69.50;;;;;;5016069;28;20069;-68
2022/08/14 08:18:18;;;;;;;9.25;7.50;;;24.90;68.80;;;;;;5018801;28;20049;-68
2022/08/14 08:20:45;;;;;;;8.52;6.97;;;25.00;69.00;;;;;;4997445;28;20049;-67
2022/08/14 08:23:14;;;;;;;7.17;6.47;;;25.00;68.40;;;;;;5019033;28;20372;-69
2022/08/14 08:25:43;;;;;;;10.52;6.88;;;25.00;68.10;;;;;;5010237;28;20215;-69
2022/08/14 08:28:14;;;;;;;10.75;6.55;;;25.10;67.60;;;;;;4994864;28;20662;-69
2022/08/14 08:30:55;;;;;;;7.45;6.65;;;25.10;68.10;;;;;;4998354;28;20072;-69
2022/08/14 08:33:22;;;;;;;10.25;6.82;;;25.20;68.10;;;;;;5011598;28;20432;-70
2022/08/14 08:35:48;;;;;;;10.35;6.68;;;25.30;67.50;;;;;;5027955;28;20041;-70
2022/08/14 08:38:16;;;;;;;9.25;6.82;;;25.30;67.50;;;;;;5011936;28;20054;-69
2022/08/14 08:40:43;;;;;;;8.82;7.05;;;25.20;67.00;;;;;;4997145;28;20042;-69
2022/08/14 08:43:18;;;;;;;7.43;6.60;;;25.20;67.20;;;;;;5009963;28;20050;-69
2022/08/14 08:45:45;;;;;;;7.38;6.28;;;25.20;66.70;;;;;;4999504;28;20284;-69
2022/08/14 08:48:12;;;;;;;7.75;6.65;;;25.20;67.00;;;;;;4995665;28;20802;-70
2022/08/14 08:50:38;;;;;;;11.02;7.32;;;25.20;67.30;;;;;;5017084;28;20125;-70
2022/08/14 08:53:08;;;;;;;8.00;7.20;;;25.20;67.00;;;;;;5043265;28;20138;-70
2022/08/14 08:55:41;;;;;;;7.47;6.68;;;25.30;67.20;;;;;;5010769;28;20050;-70
2022/08/14 08:58:09;;;;;;;9.65;6.47;;;25.30;67.20;;;;;;4996654;28;20442;-71
2022/08/14 09:00:36;;;;;;;8.60;6.90;;;25.30;66.10;;;;;;4978531;28;20053;-70
2022/08/14 09:03:09;;;;;;;9.25;7.18;;;25.30;65.80;;;;;;5046065;28;20080;-71
2022/08/14 09:05:36;;;;;;;8.77;7.00;;;25.40;65.30;;;;;;5021983;28;20539;-71
2022/08/14 09:08:19;;;;;;;7.90;6.63;;;25.40;65.00;;;;;;5011751;28;20085;-71
2022/08/14 09:10:45;;;;;;;6.95;6.25;;;25.50;64.00;;;;;;5003719;28;20061;-71
2022/08/14 09:13:14;;;;;;;9.25;7.05;;;25.60;64.30;;;;;;5012330;28;20057;-67
2022/08/14 09:15:41;;;;;;;8.38;7.13;;;25.70;63.40;;;;;;5010544;28;20131;-70
2022/08/14 09:18:10;;;;;;;7.70;6.90;;;25.80;63.80;;;;;;5017776;28;20045;-70
2022/08/14 09:20:38;;;;;;;8.00;7.10;;;25.80;62.70;;;;;;5032219;28;20357;-69
2022/08/14 09:23:11;;;;;;;7.78;7.05;;;25.80;62.70;;;;;;5011712;28;20386;-66
2022/08/14 09:25:40;;;;;;;13.93;8.30;;;25.90;63.10;;;;;;5022396;28;20037;-68
2022/08/14 09:28:08;;;;;;;11.38;7.25;;;26.00;62.90;;;;;;5019810;28;20073;-69
2022/08/14 09:30:36;;;;;;;8.97;6.70;;;26.00;63.00;;;;;;5013833;28;20066;-69
2022/08/14 09:33:24;;;;;;;8.25;6.63;;;26.10;63.00;;;;;;5032780;28;20474;-66
2022/08/14 09:36:03;;;;;;;8.25;7.03;;;26.20;63.60;;;;;;5025367;28;20087;-69
2022/08/14 09:39:05;;;;;;;8.20;7.30;;;26.20;63.20;;;;;;5021004;28;20489;-68
2022/08/14 09:42:06;;;;;;;7.75;6.93;;;26.20;62.80;;;;;;5019778;28;20746;-69
2022/08/14 09:45:09;;;;;;;8.73;6.72;;;26.30;62.20;;;;;;5019159;28;20269;-67
2022/08/14 09:47:56;;;;;;;9.25;7.35;;;26.30;62.80;;;;;;5010387;28;20436;-68
2022/08/14 09:50:32;;;;;;;9.80;6.88;;;26.40;62.60;;;;;;5013683;28;20042;-69
2022/08/14 09:53:02;;;;;;;9.65;6.65;;;26.40;62.60;;;;;;5012212;28;20053;-70
2022/08/14 09:55:34;;;;;;;10.40;7.22;;;26.50;62.60;;;;;;5017678;28;20049;-68
2022/08/14 09:58:19;;;;;;;8.90;7.20;;;26.50;62.10;;;;;;5001514;28;20810;-68
2022/08/14 10:00:56;;;;;;;8.90;7.57;;;26.60;62.20;;;;;;5018515;28;20104;-68
2022/08/14 10:03:33;;;;;;;10.02;7.63;;;26.70;61.40;;;;;;5026477;28;20455;-68
2022/08/14 10:06:16;;;;;;;12.30;7.43;;;26.70;61.10;;;;;;5009454;28;20467;-68
2022/08/14 10:08:51;;;;;;;10.23;7.18;;;26.90;61.30;;;;;;4999773;28;20050;-67
2022/08/14 10:11:26;;;;;;;9.38;6.55;;;27.00;61.80;;;;;;5020450;28;20502;-69
2022/08/14 10:13:57;;;;;;;7.82;6.80;;;27.10;60.60;;;;;;5044530;28;20539;-68
2022/08/14 10:16:28;;;;;;;8.45;7.13;;;27.10;60.50;;;;;;5008189;28;20049;-67
2022/08/14 10:19:08;;;;;;;8.35;7.15;;;27.20;59.60;;;;;;5018298;28;20042;-67
2022/08/14 10:21:34;;;;;;;9.73;7.57;;;27.30;59.70;;;;;;4998389;28;20357;-67
2022/08/14 10:24:00;;;;;;;11.85;8.95;;;27.50;59.50;;;;;;5010022;28;20125;-68
2022/08/14 10:26:26;;;;;;;10.35;8.07;;;27.60;58.70;;;;;;4995924;28;20366;-69
2022/08/14 10:28:52;;;;;;;25.55;16.92;;;27.70;59.00;;;;;;5007919;28;20076;-68
2022/08/14 10:31:28;;;;;;;12.40;8.43;;;27.80;58.50;;;;;;5035173;28;20383;-69
2022/08/14 10:34:00;;;;;;;10.27;8.73;;;27.90;58.10;;;;;;5008943;28;20793;-73
2022/08/14 10:36:34;;;;;;;23.80;16.58;;;28.00;57.50;;;;;;5007821;28;20067;-71
2022/08/14 10:39:17;;;;;;;14.13;9.40;;;28.00;57.10;;;;;;5003890;28;20041;-71
2022/08/14 10:41:43;;;;;;;11.02;8.55;;;28.10;56.90;;;;;;4991507;28;20060;-72
2022/08/14 10:44:15;;;;;;;9.55;7.43;;;28.20;56.40;;;;;;5008849;28;20050;-70
2022/08/14 10:46:45;;;;;;;13.55;8.20;;;28.30;55.20;;;;;;4994851;28;20045;-73
2022/08/14 10:49:22;;;;;;;8.85;7.68;;;28.40;55.60;;;;;;5042678;28;20068;-71
2022/08/14 10:52:08;;;;;;;9.30;7.32;;;28.50;54.80;;;;;;4997683;28;20535;-70
2022/08/14 10:54:34;;;;;;;8.20;6.80;;;28.60;55.80;;;;;;5017364;28;20156;-72
2022/08/14 10:57:20;;;;;;;11.15;6.20;;;28.80;54.10;;;;;;4994530;28;20058;-71
2022/08/14 10:59:46;;;;;;;8.43;6.55;;;28.90;52.30;;;;;;5009673;28;20391;-71
2022/08/14 11:02:24;;;;;;;7.90;6.90;;;28.90;50.40;;;;;;5014700;28;20120;-72
2022/08/14 11:05:06;;;;;;;8.27;6.40;;;28.90;51.50;;;;;;5017019;28;20038;-71
2022/08/14 11:07:32;;;;;;;7.55;6.75;;;29.00;51.90;;;;;;5021962;28;20132;-71
2022/08/14 11:09:59;;;;;;;10.25;6.63;;;29.10;51.30;;;;;;5021230;28;20050;-71
2022/08/14 11:12:26;;;;;;;9.47;6.80;;;29.10;51.50;;;;;;5019412;28;20057;-71
2022/08/14 11:14:58;;;;;;;7.32;6.43;;;29.20;51.10;;;;;;5012448;28;20107;-71
2022/08/14 11:17:26;;;;;;;9.40;6.80;;;29.20;51.30;;;;;;5014745;28;20136;-70
2022/08/14 11:19:58;;;;;;;9.25;6.72;;;29.40;52.40;;;;;;5036193;28;20052;-70
2022/08/14 11:22:26;;;;;;;8.68;6.07;;;29.60;52.00;;;;;;5029805;28;20099;-70
2022/08/14 11:24:52;;;;;;;7.95;6.38;;;29.60;49.80;;;;;;4991558;28;20424;-71
2022/08/14 11:27:18;;;;;;;10.77;6.57;;;29.70;50.00;;;;;;4982301;28;20046;-71
2022/08/14 11:29:55;;;;;;;13.95;6.25;;;29.70;48.90;;;;;;5007590;28;20087;-71
2022/08/14 11:32:24;;;;;;;9.55;6.80;;;29.60;48.70;;;;;;4966986;28;20049;-72
2022/08/14 11:34:52;;;;;;;8.25;6.53;;;29.50;49.20;;;;;;4993094;28;20084;-71
2022/08/14 11:37:17;;;;;;;;;;;29.50;48.70;;;;;;5058249;28;20053;-70
2022/08/14 11:39:43;;;;;;;9.07;6.90;;;29.50;49.20;;;;;;5053922;28;20535;-70
2022/08/14 11:42:19;;;;;;;8.80;6.80;;;29.50;48.80;;;;;;5020971;28;20103;-69
2022/08/14 11:44:44;;;;;;;9.13;6.88;;;29.60;48.70;;;;;;5038148;28;20041;-70
2022/08/14 11:47:18;;;;;;;9.80;6.93;;;29.60;49.00;;;;;;5020895;28;20049;-71
2022/08/14 11:49:45;;;;;;;6.97;6.28;;;29.60;49.10;;;;;;5004319;28;20796;-71
2022/08/14 11:52:11;;;;;;;8.10;6.60;;;29.60;49.40;;;;;;5010840;28;20056;-71
2022/08/14 11:54:37;;;;;;;11.00;6.30;;;29.70;48.70;;;;;;5010885;28;20284;-71
2022/08/14 11:57:04;;;;;;;7.93;6.70;;;29.70;49.50;;;;;;5018716;28;20422;-70
2022/08/14 11:59:32;;;;;;;8.57;6.43;;;29.70;49.20;;;;;;5011157;28;20042;-70
2022/08/14 12:02:08;;;;;;;8.23;6.40;;;29.90;49.40;;;;;;5041186;28;20069;-70
2022/08/14 12:04:50;;;;;;;8.48;6.78;;;29.80;48.80;;;;;;5001210;28;20063;-70
2022/08/14 12:07:16;;;;;;;6.53;5.82;;;29.90;49.40;;;;;;5044215;28;20049;-71
2022/08/14 12:09:45;;;;;;;10.20;6.47;;;30.00;49.00;;;;;;5044072;28;20064;-70
2022/08/14 12:12:16;;;;;;;8.20;6.72;;;30.00;49.70;;;;;;5004675;28;20439;-71
2022/08/14 12:14:59;;;;;;;11.43;6.60;;;30.00;49.70;;;;;;4997891;28;20041;-70
2022/08/14 12:17:32;;;;;;;7.03;6.32;;;30.00;49.80;;;;;;5016559;28;20371;-70
2022/08/14 12:20:00;;;;;;;9.57;6.80;;;29.80;49.30;;;;;;5003588;28;20382;-70
2022/08/14 12:22:37;;;;;;;8.40;6.78;;;29.80;49.90;;;;;;5001306;28;20053;-72
2022/08/14 12:25:05;;;;;;;8.90;6.55;;;29.80;49.60;;;;;;5035015;28;20462;-70
2022/08/14 12:27:35;;;;;;;8.15;6.65;;;29.90;48.90;;;;;;4996543;28;20053;-72
2022/08/14 12:30:01;;;;;;;8.90;6.20;;;29.90;49.50;;;;;;5021448;28;20045;-72
2022/08/14 12:32:36;;;;;;;8.30;6.75;;;29.90;48.60;;;;;;4997417;28;20056;-71
2022/08/14 12:35:03;;;;;;;10.45;7.03;;;29.90;48.40;;;;;;4998326;28;20096;-71
2022/08/14 12:37:30;;;;;;;9.98;6.25;;;30.10;46.70;;;;;;5015691;28;20061;-72
2022/08/14 12:40:10;;;;;;;7.90;6.10;;;30.10;46.80;;;;;;5013251;28;20050;-71
2022/08/14 12:42:39;;;;;;;6.32;5.70;;;30.30;46.40;;;;;;5012517;28;20048;-71
2022/08/14 12:45:06;;;;;;;9.40;6.28;;;30.30;45.10;;;;;;5045337;28;20053;-71
2022/08/14 12:47:31;;;;;;;7.93;6.00;;;30.50;44.70;;;;;;5012032;28;20471;-72
2022/08/14 12:49:57;;;;;;;7.10;5.30;;;30.60;45.10;;;;;;4994000;28;20065;-71
2022/08/14 12:52:39;;;;;;;7.55;6.15;;;30.90;44.20;;;;;;5019124;28;20073;-71
2022/08/14 12:55:10;;;;;;;12.55;6.50;;;31.00;43.30;;;;;;5054201;28;20072;-71
2022/08/14 12:57:41;;;;;;;7.45;6.10;;;31.00;43.30;;;;;;5008620;28;20054;-72
2022/08/14 13:00:13;;;;;;;10.57;6.30;;;31.00;43.20;;;;;;5024002;28;20077;-71
2022/08/14 13:02:40;;;;;;;8.98;6.32;;;31.10;43.80;;;;;;5009546;28;20050;-70
2022/08/14 13:05:08;;;;;;;7.30;6.10;;;31.10;43.60;;;;;;5026837;28;20057;-71
2022/08/14 13:07:36;;;;;;;8.77;5.43;;;31.30;43.60;;;;;;5052715;28;20056;-71
2022/08/14 13:10:02;;;;;;;7.25;5.60;;;31.40;42.80;;;;;;5022664;28;20056;-70
2022/08/14 13:12:28;;;;;;;6.55;5.68;;;31.40;41.60;;;;;;5018638;28;20054;-72